Terminal Aerodrome Forecast
Issued by NWS Cleveland, OH

Home | Current Version | Previous Version | Graphics & Text | Print | Product List | Glossary Off
Versions: 1 2 3 4 5 6 7 8 9 10 11 12 13 14 15 16 17

582
FTUS41 KCLE 162324
TAFCAK
TAF
KCAK 162324Z 1700/1724 07005KT P6SM SCT150
     FM170700 13005KT P6SM SCT200
     FM170800 13005KT P6SM BKN200
     FM171500 19007KT P6SM OVC060
     FM172100 21008KT P6SM -TSRA SCT035CB OVC090=

USA.gov is the U.S. government's official web portal to all federal, state and local government web resources and services.